createdAt,value
2023-01-19T00:01:57.278Z,97606.09
2023-01-19T00:04:59.591Z,97604.06
2023-01-19T00:08:14.808Z,97594.59
2023-01-19T00:11:18.064Z,97589.72
2023-01-19T00:14:20.243Z,97592.97
2023-01-19T00:17:22.422Z,97589.53
2023-01-19T00:20:24.781Z,97594.56
2023-01-19T00:23:26.952Z,97596.19
2023-01-19T00:26:29.170Z,97592.97
2023-01-19T00:29:33.479Z,97605.88
2023-01-19T00:32:35.643Z,97603.66
2023-01-19T00:35:37.870Z,97596.41
2023-01-19T00:38:40.169Z,97596.41
2023-01-19T00:42:01.330Z,97587.72
2023-01-19T00:45:03.611Z,97584.09
2023-01-19T00:48:06.008Z,97592.53
2023-01-19T00:51:08.194Z,97590.53
2023-01-19T00:54:10.488Z,97593.37
2023-01-19T00:57:12.739Z,97593.16
2023-01-19T01:00:16.848Z,97588.72
2023-01-19T01:03:19.112Z,97580.84
2023-01-19T01:06:21.814Z,97575.81
2023-01-19T01:09:24.347Z,97569.53
2023-01-19T01:12:26.663Z,97569.94
2023-01-19T01:15:29.921Z,97561.22
2023-01-19T01:18:32.151Z,97569.50
2023-01-19T01:21:35.701Z,97572.97
2023-01-19T01:24:38.266Z,97556.38
2023-01-19T01:27:41.237Z,97553.56
2023-01-19T01:30:44.137Z,97536.81
2023-01-19T01:33:46.346Z,97541.25
2023-01-19T01:36:48.474Z,97540.63
2023-01-19T01:39:50.647Z,97542.66
2023-01-19T01:42:53.016Z,97551.12
2023-01-19T01:45:55.530Z,97549.31
2023-01-19T01:49:13.829Z,97549.91
2023-01-19T01:52:16.312Z,97548.50
2023-01-19T01:55:20.497Z,97548.69
2023-01-19T01:58:22.910Z,97544.00
2023-01-19T02:01:44.271Z,97548.25
2023-01-19T02:04:53.460Z,97557.91
2023-01-19T02:08:31.747Z,97568.81
2023-01-19T02:11:53.006Z,97574.47
2023-01-19T02:14:55.524Z,97584.16
2023-01-19T02:17:58.555Z,97592.41
2023-01-19T02:21:14.173Z,97598.44
2023-01-19T02:24:16.678Z,97567.72
2023-01-19T02:27:19.304Z,97536.19
2023-01-19T02:30:21.537Z,97535.94
2023-01-19T02:33:23.936Z,97559.69
2023-01-19T02:36:31.390Z,97585.66
2023-01-19T02:39:35.240Z,97604.81
2023-01-19T02:42:41.680Z,97613.44
2023-01-19T02:45:44.059Z,97606.09
2023-01-19T02:48:46.287Z,97583.69
2023-01-19T02:51:48.960Z,97557.84
2023-01-19T02:55:18.174Z,97541.44
2023-01-19T02:58:55.173Z,97545.44
2023-01-19T03:02:18.247Z,97550.69
2023-01-19T03:05:26.800Z,97555.44
2023-01-19T03:08:50.231Z,97581.28
2023-01-19T03:12:04.686Z,97587.03
2023-01-19T03:15:35.875Z,97594.84
2023-01-19T03:18:38.431Z,97588.91
2023-01-19T03:21:44.923Z,97577.44
2023-01-19T03:24:48.206Z,97598.94
2023-01-19T03:27:53.727Z,97612.84
2023-01-19T03:31:10.813Z,97615.59
2023-01-19T03:34:14.425Z,97620.88
2023-01-19T03:37:17.166Z,97611.91
2023-01-19T03:40:19.384Z,97599.75
2023-01-19T03:43:22.741Z,97574.66
2023-01-19T03:46:25.823Z,97536.97
2023-01-19T03:49:30.961Z,97529.13
2023-01-19T03:52:33.693Z,97543.56
2023-01-19T03:55:37.977Z,97535.16
2023-01-19T03:58:40.136Z,97532.88
2023-01-19T04:01:42.698Z,97536.09
2023-01-19T04:04:45.000Z,97555.41
2023-01-19T04:07:51.307Z,97566.62
2023-01-19T04:10:53.551Z,97585.72
2023-01-19T04:13:55.918Z,97587.28
2023-01-19T04:16:58.087Z,97572.41
2023-01-19T04:20:00.486Z,97566.47
2023-01-19T04:23:03.053Z,97562.41
2023-01-19T04:26:07.089Z,97556.38
2023-01-19T04:29:09.513Z,97559.19
2023-01-19T04:32:13.674Z,97543.69
2023-01-19T04:35:16.987Z,97563.03
2023-01-19T04:38:20.151Z,97564.47
2023-01-19T04:41:22.336Z,97567.09
2023-01-19T04:44:24.550Z,97576.91
2023-01-19T04:47:26.744Z,97573.94
2023-01-19T04:50:28.960Z,97572.31
2023-01-19T04:53:31.125Z,97559.44
2023-01-19T04:56:33.335Z,97562.47
2023-01-19T04:59:35.567Z,97547.59
2023-01-19T05:02:37.907Z,97549.72
2023-01-19T05:05:40.112Z,97558.94
2023-01-19T05:08:44.539Z,97566.59
2023-01-19T05:11:47.457Z,97584.87
2023-01-19T05:14:50.361Z,97577.84
2023-01-19T05:17:52.926Z,97584.06
2023-01-19T05:20:55.178Z,97575.06
2023-01-19T05:23:57.359Z,97565.09
2023-01-19T05:26:59.972Z,97587.72
2023-01-19T05:30:04.990Z,97605.03
2023-01-19T05:33:07.247Z,97611.38
2023-01-19T05:36:09.815Z,97622.41
2023-01-19T05:39:12.182Z,97627.09
2023-01-19T05:42:14.436Z,97629.94
2023-01-19T05:45:16.705Z,97638.06
2023-01-19T05:48:18.892Z,97643.38
2023-01-19T05:51:21.084Z,97630.34
2023-01-19T05:54:23.750Z,97617.19
2023-01-19T05:57:25.955Z,97602.25
2023-01-19T06:00:29.218Z,97594.84
2023-01-19T06:03:32.619Z,97585.37
2023-01-19T06:06:34.818Z,97571.28
2023-01-19T06:09:37.128Z,97573.09
2023-01-19T06:12:41.273Z,97577.28
2023-01-19T06:15:44.981Z,97602.25
2023-01-19T06:18:47.171Z,97606.16
2023-01-19T06:21:52.238Z,97582.75
2023-01-19T06:24:54.596Z,97567.25
2023-01-19T06:27:56.750Z,97589.22
2023-01-19T06:30:59.206Z,97593.34
2023-01-19T06:34:01.470Z,97578.81
2023-01-19T06:37:03.990Z,97585.06
2023-01-19T06:40:07.399Z,97577.37
2023-01-19T06:43:09.672Z,97567.72
2023-01-19T06:46:12.118Z,97580.44
2023-01-19T06:49:14.430Z,97596.75
2023-01-19T06:52:17.584Z,97601.63
2023-01-19T06:55:19.827Z,97600.00
2023-01-19T06:58:22.069Z,97614.78
2023-01-19T07:01:24.391Z,97609.97
2023-01-19T07:04:27.142Z,97619.88
2023-01-19T07:07:29.581Z,97618.69
2023-01-19T07:11:24.857Z,97599.19
2023-01-19T07:13:55.172Z,97598.75
2023-01-19T07:16:57.499Z,97597.00
2023-01-19T07:19:59.771Z,97608.28
2023-01-19T07:23:03.273Z,97606.28
2023-01-19T07:26:05.848Z,97607.28
2023-01-19T07:29:08.150Z,97610.69
2023-01-19T07:32:10.357Z,97601.03
2023-01-19T07:35:12.553Z,97608.59
2023-01-19T07:38:15.646Z,97615.63
2023-01-19T07:41:18.030Z,97627.19
2023-01-19T07:44:20.219Z,97625.53
2023-01-19T07:47:22.412Z,97630.59
2023-01-19T07:50:26.162Z,97624.53
2023-01-19T07:53:28.525Z,97617.72
2023-01-19T07:56:33.953Z,97615.91
2023-01-19T07:59:36.394Z,97620.78
2023-01-19T08:02:38.549Z,97629.66
2023-01-19T08:05:40.783Z,97639.03
2023-01-19T08:08:43.848Z,97641.22
2023-01-19T08:11:46.076Z,97633.78
2023-01-19T08:14:48.288Z,97626.47
2023-01-19T08:17:58.147Z,97624.84
2023-01-19T08:21:00.660Z,97626.72
2023-01-19T08:24:02.992Z,97621.69
2023-01-19T08:27:05.862Z,97625.34
2023-01-19T08:30:08.888Z,97626.94
2023-01-19T08:33:13.951Z,97626.81
2023-01-19T08:36:16.484Z,97629.63
2023-01-19T08:39:18.721Z,97629.03
2023-01-19T08:42:21.028Z,97630.28
2023-01-19T08:45:23.227Z,97638.00
2023-01-19T08:48:25.395Z,97644.63
2023-01-19T08:51:27.638Z,97642.38
2023-01-19T08:54:29.826Z,97642.03
2023-01-19T08:57:32.015Z,97639.19
2023-01-19T09:00:35.031Z,97641.06
2023-01-19T09:03:37.523Z,97641.62
2023-01-19T09:06:39.816Z,97646.94
2023-01-19T09:09:43.562Z,97640.84
2023-01-19T09:12:46.429Z,97642.09
2023-01-19T09:15:48.918Z,97647.75
2023-01-19T09:18:51.109Z,97626.59
2023-01-19T09:21:54.870Z,97631.78
2023-01-19T09:24:57.136Z,97629.87
2023-01-19T09:28:00.333Z,97623.63
2023-01-19T09:31:07.727Z,97634.31
2023-01-19T09:34:11.045Z,97628.00
2023-01-19T09:37:13.368Z,97629.00
2023-01-19T09:40:15.972Z,97624.44
2023-01-19T09:43:47.895Z,97620.03
2023-01-19T09:46:50.104Z,97617.94
2023-01-19T09:49:59.955Z,97625.06
2023-01-19T09:53:13.840Z,97634.12
2023-01-19T09:56:18.248Z,97628.91
2023-01-19T09:59:31.808Z,97617.78
2023-01-19T10:02:40.893Z,97625.47
2023-01-19T10:06:11.925Z,97618.81
2023-01-19T10:09:44.242Z,97622.03
2023-01-19T10:12:51.110Z,97624.06
2023-01-19T10:16:33.946Z,97634.38
2023-01-19T10:19:38.507Z,97645.28
2023-01-19T10:22:43.394Z,97652.53
2023-01-19T10:25:46.349Z,97658.00
2023-01-19T10:28:50.773Z,97650.09
2023-01-19T10:32:02.086Z,97651.66
2023-01-19T10:35:21.755Z,97641.13
2023-01-19T10:38:24.075Z,97639.25
2023-01-19T10:41:31.765Z,97636.19
2023-01-19T10:44:37.795Z,97645.72
2023-01-19T10:47:40.281Z,97653.19
2023-01-19T10:50:42.489Z,97651.63
2023-01-19T10:54:03.902Z,97667.53
2023-01-19T10:57:08.923Z,97665.84
2023-01-19T11:00:29.505Z,97671.13
2023-01-19T11:03:32.258Z,97673.56
2023-01-19T11:06:35.730Z,97658.09
2023-01-19T11:09:37.904Z,97663.16
2023-01-19T11:12:44.400Z,97663.34
2023-01-19T11:15:57.455Z,97656.84
2023-01-19T11:19:02.093Z,97666.75
2023-01-19T11:22:22.824Z,97654.37
2023-01-19T11:25:31.027Z,97665.25
2023-01-19T11:28:35.767Z,97666.44
2023-01-19T11:31:38.027Z,97660.87
2023-01-19T11:34:40.283Z,97664.13
2023-01-19T11:37:43.223Z,97668.47
2023-01-19T11:40:53.157Z,97673.28
2023-01-19T11:43:58.092Z,97680.56
2023-01-19T11:47:02.692Z,97678.41
2023-01-19T11:50:26.949Z,97679.56
2023-01-19T11:53:33.993Z,97669.84
2023-01-19T11:56:36.310Z,97677.81
2023-01-19T11:59:38.556Z,97675.81
2023-01-19T12:02:45.037Z,97692.66
2023-01-19T12:05:49.397Z,97690.41
2023-01-19T12:09:13.318Z,97691.94
2023-01-19T12:12:42.549Z,97689.69
2023-01-19T12:15:45.495Z,97696.25
2023-01-19T12:19:15.148Z,97702.81
2023-01-19T12:22:17.815Z,97715.28
2023-01-19T12:25:25.959Z,97718.78
2023-01-19T12:28:34.262Z,97724.59
2023-01-19T12:31:38.209Z,97722.16
2023-01-19T12:34:41.255Z,97719.97
2023-01-19T12:37:44.584Z,97717.66
2023-01-19T12:40:46.729Z,97717.53
2023-01-19T12:44:16.152Z,97727.94
2023-01-19T12:47:21.016Z,97723.84
2023-01-19T12:50:25.823Z,97732.47
2023-01-19T12:53:30.565Z,97743.00
2023-01-19T12:56:34.910Z,97746.34
2023-01-19T12:59:37.583Z,97754.38
2023-01-19T13:02:47.787Z,97750.16
2023-01-19T13:05:52.505Z,97758.91
2023-01-19T13:08:59.773Z,97759.97
2023-01-19T13:12:20.808Z,97770.34
2023-01-19T13:15:29.396Z,97780.34
2023-01-19T13:18:34.066Z,97783.44
2023-01-19T13:21:45.080Z,97795.34
2023-01-19T13:25:07.832Z,97802.97
2023-01-19T13:28:10.467Z,97801.34
2023-01-19T13:31:13.507Z,97806.66
2023-01-19T13:34:21.578Z,97816.59
2023-01-19T13:37:37.924Z,97819.97
2023-01-19T13:40:40.238Z,97825.91
2023-01-19T13:43:42.747Z,97835.34
2023-01-19T13:46:46.075Z,97836.75
2023-01-19T13:50:00.346Z,97838.19
2023-01-19T13:53:04.685Z,97837.25
2023-01-19T13:56:10.070Z,97843.63
2023-01-19T13:59:13.540Z,97852.37
2023-01-19T14:02:21.758Z,97856.56
2023-01-19T14:05:25.737Z,97858.75
2023-01-19T14:08:27.965Z,97866.19
2023-01-19T14:11:30.250Z,97872.94
2023-01-19T14:14:32.616Z,97873.81
2023-01-19T14:17:34.798Z,97882.72
2023-01-19T14:20:37.299Z,97878.00
2023-01-19T14:23:51.415Z,97889.59
2023-01-19T14:26:54.785Z,97898.41
2023-01-19T14:30:15.083Z,97888.69
2023-01-19T14:33:45.337Z,97872.50
2023-01-19T14:36:50.703Z,97868.28
2023-01-19T14:39:55.583Z,97853.78
2023-01-19T14:43:09.026Z,97861.34
2023-01-19T14:46:20.730Z,97875.19
2023-01-19T14:49:32.781Z,97895.72
2023-01-19T14:52:38.732Z,97887.97
2023-01-19T14:55:52.456Z,97899.94
2023-01-19T14:58:59.373Z,97909.28
2023-01-19T15:02:01.730Z,97908.09
2023-01-19T15:05:04.037Z,97916.50
2023-01-19T15:08:06.931Z,97920.94
2023-01-19T15:11:13.840Z,97925.75
2023-01-19T15:14:17.606Z,97941.78
2023-01-19T15:17:27.074Z,97959.37
2023-01-19T15:20:29.264Z,97971.13
2023-01-19T15:23:32.533Z,97964.56
2023-01-19T15:26:36.352Z,97974.19
2023-01-19T15:29:40.243Z,97970.69
2023-01-19T15:32:43.935Z,97966.63
2023-01-19T15:35:46.187Z,97961.78
2023-01-19T15:38:50.875Z,97962.91
2023-01-19T15:41:53.346Z,97962.38
2023-01-19T15:44:55.566Z,97975.84
2023-01-19T15:47:57.845Z,97973.56
2023-01-19T15:51:00.277Z,97973.94
2023-01-19T15:54:02.767Z,97979.28
2023-01-19T15:57:05.666Z,97976.19
2023-01-19T16:00:09.005Z,97979.47
2023-01-19T16:03:11.404Z,97995.47
2023-01-19T16:06:16.201Z,98008.50
2023-01-19T16:09:20.149Z,98011.47
2023-01-19T16:12:22.367Z,98033.97
2023-01-19T16:15:25.435Z,98051.13
2023-01-19T16:18:27.671Z,98073.44
2023-01-19T16:21:29.887Z,98071.06
2023-01-19T16:24:32.345Z,98066.75
2023-01-19T16:27:34.676Z,98057.63
2023-01-19T16:30:36.870Z,98070.34
2023-01-19T16:33:39.051Z,98075.97
2023-01-19T16:36:41.900Z,98076.12
2023-01-19T16:39:45.454Z,98077.44
2023-01-19T16:42:47.706Z,98076.34
2023-01-19T16:46:01.695Z,98083.41
2023-01-19T16:49:15.106Z,98094.28
2023-01-19T16:52:17.384Z,98108.66
2023-01-19T16:55:22.334Z,98113.78
2023-01-19T16:58:24.773Z,98117.66
2023-01-19T17:01:29.233Z,98118.22
2023-01-19T17:04:31.538Z,98137.56
2023-01-19T17:07:33.749Z,98142.81
2023-01-19T17:10:36.691Z,98145.06
2023-01-19T17:13:40.116Z,98148.69
2023-01-19T17:16:43.426Z,98145.59
2023-01-19T17:19:45.587Z,98143.94
2023-01-19T17:22:47.881Z,98161.38
2023-01-19T17:25:55.726Z,98162.72
2023-01-19T17:29:06.087Z,98164.72
2023-01-19T17:32:08.943Z,98164.41
2023-01-19T17:35:11.477Z,98177.03
2023-01-19T17:38:14.344Z,98185.41
2023-01-19T17:41:20.920Z,98183.38
2023-01-19T17:44:23.687Z,98199.09
2023-01-19T17:47:26.016Z,98196.47
2023-01-19T17:50:28.625Z,98199.25
2023-01-19T17:53:31.888Z,98211.84
2023-01-19T17:56:37.598Z,98212.34
2023-01-19T17:59:43.332Z,98215.91
2023-01-19T18:02:49.251Z,98219.50
2023-01-19T18:05:55.561Z,98221.25
2023-01-19T18:08:59.452Z,98220.84
2023-01-19T18:12:01.970Z,98209.94
2023-01-19T18:15:05.883Z,98207.12
2023-01-19T18:18:08.104Z,98202.44
2023-01-19T18:21:12.371Z,98206.41
2023-01-19T18:24:15.126Z,98215.78
2023-01-19T18:27:17.716Z,98214.44
2023-01-19T18:30:20.455Z,98218.22
2023-01-19T18:33:24.616Z,98221.78
2023-01-19T18:36:27.301Z,98229.69
2023-01-19T18:39:32.369Z,98233.13
2023-01-19T18:42:35.018Z,98229.84
2023-01-19T18:45:38.305Z,98227.63
2023-01-19T18:48:40.801Z,98233.78
2023-01-19T18:51:43.308Z,98230.78
2023-01-19T18:54:48.209Z,98232.13
2023-01-19T18:57:54.231Z,98235.81
2023-01-19T19:00:57.144Z,98239.53
2023-01-19T19:03:59.708Z,98238.19
2023-01-19T19:07:02.194Z,98245.03
2023-01-19T19:10:05.623Z,98241.84
2023-01-19T19:13:08.761Z,98244.12
2023-01-19T19:16:12.643Z,98241.72
2023-01-19T19:19:18.546Z,98244.00
2023-01-19T19:22:21.049Z,98254.19
2023-01-19T19:25:24.228Z,98265.25
2023-01-19T19:28:26.744Z,98271.37
2023-01-19T19:31:30.323Z,98263.78
2023-01-19T19:34:33.790Z,98268.19
2023-01-19T19:37:36.039Z,98263.66
2023-01-19T19:40:38.454Z,98266.44
2023-01-19T19:43:41.121Z,98283.56
2023-01-19T19:46:43.569Z,98281.25
2023-01-19T19:49:46.441Z,98297.69
2023-01-19T19:52:49.887Z,98303.25
2023-01-19T19:56:00.685Z,98316.72
2023-01-19T19:59:02.950Z,98309.19
2023-01-19T20:02:05.596Z,98313.78
2023-01-19T20:05:08.575Z,98325.03
2023-01-19T20:08:11.238Z,98324.19
2023-01-19T20:11:19.330Z,98327.94
2023-01-19T20:14:22.513Z,98333.84
2023-01-19T20:17:25.099Z,98320.41
2023-01-19T20:20:27.713Z,98319.31
2023-01-19T20:23:30.177Z,98316.66
2023-01-19T20:26:35.939Z,98324.00
2023-01-19T20:29:38.609Z,98323.22
2023-01-19T20:32:41.082Z,98323.38
2023-01-19T20:35:43.629Z,98323.22
2023-01-19T20:38:46.061Z,98332.84
2023-01-19T20:41:51.185Z,98338.91
2023-01-19T20:44:55.644Z,98344.94
2023-01-19T20:47:57.898Z,98351.94
2023-01-19T20:51:06.223Z,98357.84
2023-01-19T20:54:09.177Z,98361.16
2023-01-19T20:57:12.743Z,98359.00
2023-01-19T21:00:15.326Z,98351.81
2023-01-19T21:03:18.016Z,98344.50
2023-01-19T21:06:21.256Z,98339.63
2023-01-19T21:09:23.699Z,98337.47
2023-01-19T21:12:26.048Z,98330.13
2023-01-19T21:15:28.239Z,98335.16
2023-01-19T21:18:30.628Z,98341.72
2023-01-19T21:21:32.933Z,98351.84
2023-01-19T21:24:35.181Z,98351.69
2023-01-19T21:27:37.358Z,98346.63
2023-01-19T21:30:39.780Z,98356.13
2023-01-19T21:33:42.959Z,98368.03
2023-01-19T21:36:45.410Z,98367.56
2023-01-19T21:39:47.624Z,98370.66
2023-01-19T21:42:49.826Z,98361.53
2023-01-19T21:45:52.209Z,98381.47
2023-01-19T21:49:05.350Z,98396.66
2023-01-19T21:52:07.986Z,98424.63
2023-01-19T21:55:10.582Z,98449.94
2023-01-19T21:58:13.005Z,98463.50
2023-01-19T22:01:15.465Z,98468.91
2023-01-19T22:04:17.849Z,98458.75
2023-01-19T22:07:20.060Z,98446.66
2023-01-19T22:10:22.299Z,98433.94
2023-01-19T22:13:24.500Z,98420.53
2023-01-19T22:16:27.843Z,98416.78
2023-01-19T22:19:30.063Z,98423.31
2023-01-19T22:22:33.383Z,98422.81
2023-01-19T22:25:35.560Z,98405.00
2023-01-19T22:28:37.898Z,98399.63
2023-01-19T22:31:40.467Z,98403.22
2023-01-19T22:34:42.690Z,98413.81
2023-01-19T22:37:44.888Z,98418.88
2023-01-19T22:40:47.051Z,98423.94
2023-01-19T22:43:50.672Z,98418.53
2023-01-19T22:46:55.328Z,98415.41
2023-01-19T22:49:57.694Z,98416.56
2023-01-19T22:52:59.873Z,98418.69
2023-01-19T22:56:13.260Z,98422.97
2023-01-19T22:59:15.467Z,98419.34
2023-01-19T23:02:19.819Z,98412.94
2023-01-19T23:05:22.891Z,98414.44
2023-01-19T23:08:25.084Z,98404.25
2023-01-19T23:11:36.182Z,98405.91
2023-01-19T23:14:38.537Z,98389.91
2023-01-19T23:17:43.471Z,98387.97
2023-01-19T23:20:45.652Z,98380.94
2023-01-19T23:23:47.845Z,98386.00
2023-01-19T23:26:50.538Z,98382.22
2023-01-19T23:29:52.940Z,98375.16
2023-01-19T23:32:55.195Z,98389.72
2023-01-19T23:35:57.337Z,98382.53
2023-01-19T23:39:01.872Z,98394.63
2023-01-19T23:42:05.121Z,98403.13
2023-01-19T23:45:08.362Z,98402.97
2023-01-19T23:48:10.606Z,98400.81
2023-01-19T23:51:24.277Z,98406.22
2023-01-19T23:54:26.467Z,98401.94
2023-01-19T23:57:28.719Z,98397.38
